Time,TemperatureF,DewpointF,PressureIn,WindDirection,WindDirectionDegrees,WindSpeedMPH,WindSpeedGustMPH,Humidity,HourlyPrecipIn,Conditions,Clouds,dailyrainin,SoftwareType,DateUTC
2013-01-17 00:05:00,59.3,57.3,29.97,NW,311,0.0,4.0,93,0.00,,,0.00,Wunderground v.1.15,2013-01-17 05:05:00,
2013-01-17 00:10:00,59.2,57.2,29.97,NW,311,0.0,4.0,93,0.00,,,0.00,Wunderground v.1.15,2013-01-17 05:10:00,
2013-01-17 00:15:00,59.2,57.2,29.97,NW,311,0.0,4.0,93,0.00,,,0.00,Wunderground v.1.15,2013-01-17 05:15:00,
2013-01-17 00:20:00,59.2,57.2,29.97,NW,311,0.0,4.0,93,0.00,,,0.00,Wunderground v.1.15,2013-01-17 05:20:00,
2013-01-17 00:30:00,59.0,57.3,29.97,NW,311,0.0,4.0,94,0.00,,,0.00,Wunderground v.1.15,2013-01-17 05:30:00,
2013-01-17 00:40:00,58.7,57.0,29.97,NW,311,0.0,4.0,94,0.00,,,0.00,Wunderground v.1.15,2013-01-17 05:40:00,
2013-01-17 00:50:00,58.6,56.9,29.97,NW,311,0.0,4.0,94,0.00,,,0.00,Wunderground v.1.15,2013-01-17 05:50:00,
2013-01-17 00:55:00,58.4,56.7,29.97,NW,311,0.0,4.0,94,0.00,,,0.00,Wunderground v.1.15,2013-01-17 05:55:00,
2013-01-17 01:05:00,58.1,56.4,29.97,NW,311,0.0,4.0,94,0.00,,,0.00,Wunderground v.1.15,2013-01-17 06:05:00,
2013-01-17 01:10:00,58.0,56.3,29.97,NW,311,0.0,4.0,94,0.00,,,0.00,Wunderground v.1.15,2013-01-17 06:10:00,
2013-01-17 01:15:00,58.0,56.3,29.97,NW,311,0.0,4.0,94,0.00,,,0.00,Wunderground v.1.15,2013-01-17 06:15:00,
2013-01-17 01:25:00,57.8,56.1,29.97,NW,311,0.0,4.0,94,0.00,,,0.00,Wunderground v.1.15,2013-01-17 06:25:00,
2013-01-17 01:35:00,57.5,56.1,29.96,NW,311,0.0,4.0,95,0.00,,,0.00,Wunderground v.1.15,2013-01-17 06:35:00,
2013-01-17 01:45:00,57.5,56.1,29.96,NW,311,0.0,4.0,95,0.00,,,0.00,Wunderground v.1.15,2013-01-17 06:45:00,
2013-01-17 01:55:00,57.3,55.9,29.97,NW,311,0.0,4.0,95,0.00,,,0.00,Wunderground v.1.15,2013-01-17 06:55:00,
2013-01-17 02:05:00,57.2,55.8,29.96,NW,311,0.0,4.0,95,0.00,,,0.00,Wunderground v.1.15,2013-01-17 07:05:00,
2013-01-17 02:15:00,57.2,55.8,29.96,NW,311,0.0,4.0,95,0.00,,,0.00,Wunderground v.1.15,2013-01-17 07:15:00,
2013-01-17 02:25:00,57.0,55.6,29.96,NW,311,0.0,4.0,95,0.00,,,0.00,Wunderground v.1.15,2013-01-17 07:25:00,
2013-01-17 02:35:00,57.0,55.6,29.95,NW,311,0.0,4.0,95,0.00,,,0.00,Wunderground v.1.15,2013-01-17 07:35:00,
2013-01-17 02:45:00,56.9,55.8,29.95,NW,311,0.0,4.0,96,0.00,,,0.00,Wunderground v.1.15,2013-01-17 07:45:00,
2013-01-17 02:55:00,56.7,55.6,29.95,NW,311,0.0,4.0,96,0.00,,,0.00,Wunderground v.1.15,2013-01-17 07:55:00,
2013-01-17 03:05:00,56.6,55.5,29.95,NW,311,0.0,4.0,96,0.00,,,0.00,Wunderground v.1.15,2013-01-17 08:05:00,
2013-01-17 03:10:00,56.6,55.5,29.95,NW,311,0.0,4.0,96,0.00,,,0.00,Wunderground v.1.15,2013-01-17 08:10:00,
2013-01-17 03:20:00,56.5,55.4,29.95,NW,311,0.0,4.0,96,0.00,,,0.00,Wunderground v.1.15,2013-01-17 08:20:00,
2013-01-17 03:30:00,56.5,55.4,29.95,NW,311,0.0,4.0,96,0.00,,,0.00,Wunderground v.1.15,2013-01-17 08:30:00,
2013-01-17 03:40:00,56.3,55.2,29.95,NW,311,0.0,4.0,96,0.00,,,0.00,Wunderground v.1.15,2013-01-17 08:40:00,
2013-01-17 03:50:00,56.3,55.2,29.95,NW,311,0.0,4.0,96,0.00,,,0.00,Wunderground v.1.15,2013-01-17 08:50:00,
2013-01-17 04:00:00,56.3,55.2,29.95,NW,311,0.0,4.0,96,0.00,,,0.00,Wunderground v.1.15,2013-01-17 09:00:00,
2013-01-17 04:10:00,56.3,55.2,29.95,NW,311,0.0,4.0,96,0.00,,,0.00,Wunderground v.1.15,2013-01-17 09:10:00,
2013-01-17 04:20:00,56.2,55.1,29.95,NW,311,0.0,4.0,96,0.00,,,0.00,Wunderground v.1.15,2013-01-17 09:20:00,
2013-01-17 04:30:00,56.3,55.2,29.95,NW,311,0.0,4.0,96,0.00,,,0.00,Wunderground v.1.15,2013-01-17 09:30:00,
2013-01-17 04:40:00,56.2,55.4,29.94,NW,311,0.0,4.0,97,0.00,,,0.00,Wunderground v.1.15,2013-01-17 09:40:00,
2013-01-17 04:50:00,56.2,55.4,29.94,NW,311,0.0,4.0,97,0.00,,,0.00,Wunderground v.1.15,2013-01-17 09:50:00,
2013-01-17 05:00:00,56.3,55.5,29.94,NW,311,0.0,4.0,97,0.00,,,0.00,Wunderground v.1.15,2013-01-17 10:00:00,
2013-01-17 05:10:00,56.3,55.5,29.93,NW,311,0.0,4.0,97,0.00,,,0.00,Wunderground v.1.15,2013-01-17 10:10:00,
2013-01-17 05:20:00,56.2,55.4,29.93,NW,311,0.0,4.0,97,0.00,,,0.00,Wunderground v.1.15,2013-01-17 10:20:00,
2013-01-17 05:30:00,56.3,55.5,29.93,NW,311,0.0,4.0,97,0.00,,,0.00,Wunderground v.1.15,2013-01-17 10:30:00,
2013-01-17 05:40:00,56.5,55.7,29.93,NW,311,0.0,4.0,97,0.00,,,0.00,Wunderground v.1.15,2013-01-17 10:40:00,
2013-01-17 05:50:00,56.6,55.8,29.93,NW,311,0.0,4.0,97,0.00,,,0.00,Wunderground v.1.15,2013-01-17 10:50:00,
2013-01-17 06:00:00,56.6,55.8,29.93,NW,311,0.0,4.0,97,0.00,,,0.00,Wunderground v.1.15,2013-01-17 11:00:00,
2013-01-17 06:10:00,56.6,55.8,29.93,NW,311,0.0,4.0,97,0.00,,,0.00,Wunderground v.1.15,2013-01-17 11:10:00,
2013-01-17 06:20:00,56.9,56.1,29.94,NW,311,0.0,4.0,97,0.00,,,0.00,Wunderground v.1.15,2013-01-17 11:20:00,
2013-01-17 06:30:00,56.9,56.1,29.94,NW,311,0.0,4.0,97,0.00,,,0.00,Wunderground v.1.15,2013-01-17 11:30:00,
2013-01-17 06:40:00,56.7,55.9,29.94,NW,311,0.0,4.0,97,0.00,,,0.00,Wunderground v.1.15,2013-01-17 11:40:00,
2013-01-17 06:50:00,56.9,56.1,29.94,NW,311,0.0,4.0,97,0.00,,,0.00,Wunderground v.1.15,2013-01-17 11:50:00,
2013-01-17 07:00:00,57.2,56.4,29.94,NW,311,0.0,4.0,97,0.00,,,0.00,Wunderground v.1.15,2013-01-17 12:00:00,
2013-01-17 07:10:00,57.2,56.4,29.94,NW,311,0.0,4.0,97,0.00,,,0.00,Wunderground v.1.15,2013-01-17 12:10:00,
2013-01-17 07:20:00,57.5,56.7,29.94,NW,311,0.0,4.0,97,0.00,,,0.00,Wunderground v.1.15,2013-01-17 12:20:00,
2013-01-17 07:30:00,57.6,56.8,29.94,NW,311,0.0,4.0,97,0.00,,,0.00,Wunderground v.1.15,2013-01-17 12:30:00,
2013-01-17 07:40:00,57.8,57.0,29.95,NW,311,0.0,4.0,97,0.00,,,0.00,Wunderground v.1.15,2013-01-17 12:40:00,
2013-01-17 07:50:00,58.6,57.8,29.94,NW,311,0.0,4.0,97,0.00,,,0.00,Wunderground v.1.15,2013-01-17 12:50:00,
2013-01-17 08:00:00,59.9,59.0,29.94,NW,311,0.0,4.0,97,0.00,,,0.00,Wunderground v.1.15,2013-01-17 13:00:00,
2013-01-17 08:10:00,61.2,60.6,29.94,NW,311,0.0,4.0,98,0.00,,,0.00,Wunderground v.1.15,2013-01-17 13:10:00,
2013-01-17 08:20:00,62.4,61.8,29.95,WSW,256,0.0,4.0,98,0.00,,,0.00,Wunderground v.1.15,2013-01-17 13:20:00,
2013-01-17 08:30:00,63.1,62.2,29.95,West,259,0.0,4.0,97,0.00,,,0.00,Wunderground v.1.15,2013-01-17 13:30:00,
2013-01-17 08:40:00,63.5,62.6,29.95,SW,226,0.0,4.0,97,0.00,,,0.00,Wunderground v.1.15,2013-01-17 13:40:00,
2013-01-17 08:50:00,64.2,63.3,29.96,WSW,250,0.0,4.0,97,0.00,,,0.00,Wunderground v.1.15,2013-01-17 13:50:00,
2013-01-17 08:55:00,64.3,63.4,29.96,SSW,198,0.0,4.0,97,0.00,,,0.00,Wunderground v.1.15,2013-01-17 13:55:00,
2013-01-17 09:05:00,64.8,63.9,29.96,WSW,239,0.0,4.0,97,0.00,,,0.00,Wunderground v.1.15,2013-01-17 14:05:00,
2013-01-17 09:15:00,65.5,64.6,29.96,WSW,240,0.0,4.0,97,0.00,,,0.00,Wunderground v.1.15,2013-01-17 14:15:00,
2013-01-17 09:20:00,66.0,65.1,29.95,West,259,0.0,4.0,97,0.00,,,0.00,Wunderground v.1.15,2013-01-17 14:20:00,
2013-01-17 09:30:00,66.8,65.9,29.95,SW,236,0.0,4.0,97,0.00,,,0.00,Wunderground v.1.15,2013-01-17 14:30:00,
2013-01-17 09:35:00,67.3,66.4,29.95,WSW,239,0.0,4.0,97,0.00,,,0.00,Wunderground v.1.15,2013-01-17 14:35:00,
2013-01-17 09:45:00,68.3,67.1,29.95,SW,232,0.0,4.0,96,0.00,,,0.00,Wunderground v.1.15,2013-01-17 14:45:00,
2013-01-17 09:55:00,68.9,66.8,29.95,NW,304,1.0,4.0,93,0.00,,,0.00,Wunderground v.1.15,2013-01-17 14:55:00,
2013-01-17 10:05:00,69.8,65.4,29.96,South,190,2.0,5.0,86,0.00,,,0.00,Wunderground v.1.15,2013-01-17 15:05:00,
2013-01-17 10:10:00,70.1,65.7,29.96,SW,236,2.0,4.0,86,0.00,,,0.00,Wunderground v.1.15,2013-01-17 15:10:00,
2013-01-17 10:15:00,70.3,65.2,29.96,SW,232,1.0,8.0,84,0.00,,,0.00,Wunderground v.1.15,2013-01-17 15:15:00,
2013-01-17 10:25:00,70.8,64.3,29.95,WSW,257,1.0,4.0,80,0.00,,,0.00,Wunderground v.1.15,2013-01-17 15:25:00,
2013-01-17 10:35:00,71.5,64.3,29.95,SW,220,3.0,3.0,78,0.00,,,0.00,Wunderground v.1.15,2013-01-17 15:35:00,
2013-01-17 10:40:00,71.6,64.4,29.95,SW,214,3.0,4.0,78,0.00,,,0.00,Wunderground v.1.15,2013-01-17 15:40:00,
2013-01-17 10:50:00,71.3,64.8,29.95,SSW,212,4.0,4.0,80,0.00,,,0.00,Wunderground v.1.15,2013-01-17 15:50:00,
2013-01-17 11:00:00,70.6,63.8,29.95,WSW,253,4.0,4.0,79,0.00,,,0.00,Wunderground v.1.15,2013-01-17 16:00:00,
2013-01-17 11:10:00,69.3,63.6,29.96,WNW,284,4.0,4.0,82,0.00,,,0.00,Wunderground v.1.15,2013-01-17 16:10:00,
2013-01-17 11:20:00,67.6,61.2,29.97,WNW,294,3.0,3.0,80,0.00,,,0.00,Wunderground v.1.15,2013-01-17 16:20:00,
2013-01-17 11:30:00,67.1,61.4,29.97,North,355,1.0,6.0,82,0.00,,,0.00,Wunderground v.1.15,2013-01-17 16:30:00,
2013-01-17 11:40:00,66.9,61.2,29.95,WSW,244,3.0,3.0,82,0.00,,,0.00,Wunderground v.1.15,2013-01-17 16:40:00,
2013-01-17 11:50:00,66.6,61.3,29.96,West,266,3.0,3.0,83,0.00,,,0.00,Wunderground v.1.15,2013-01-17 16:50:00,
2013-01-17 12:00:00,66.0,61.4,29.96,WNW,284,3.0,6.0,85,0.00,,,0.00,Wunderground v.1.15,2013-01-17 17:00:00,
2013-01-17 12:10:00,65.6,61.3,29.95,WNW,286,2.0,2.0,86,0.00,,,0.00,Wunderground v.1.15,2013-01-17 17:10:00,
2013-01-17 12:20:00,65.2,59.9,29.95,SW,223,3.0,4.0,83,0.00,,,0.00,Wunderground v.1.15,2013-01-17 17:20:00,
2013-01-17 12:30:00,64.8,59.2,29.95,SW,228,4.0,4.0,82,0.00,,,0.00,Wunderground v.1.15,2013-01-17 17:30:00,
2013-01-17 12:40:00,64.2,58.6,29.95,SW,220,5.0,5.0,82,0.00,,,0.00,Wunderground v.1.15,2013-01-17 17:40:00,
2013-01-17 12:50:00,63.9,59.0,29.95,WSW,239,4.0,4.0,84,0.00,,,0.00,Wunderground v.1.15,2013-01-17 17:50:00,
2013-01-17 13:00:00,63.7,58.8,29.95,West,279,3.0,7.0,84,0.00,,,0.00,Wunderground v.1.15,2013-01-17 18:00:00,
2013-01-17 13:05:00,63.4,59.1,29.95,WNW,286,3.0,7.0,86,0.00,,,0.00,Wunderground v.1.15,2013-01-17 18:05:00,
2013-01-17 13:15:00,62.3,58.7,29.95,WSW,251,3.0,7.0,88,0.00,,,0.00,Wunderground v.1.15,2013-01-17 18:15:00,
2013-01-17 13:25:00,61.0,57.7,29.95,WSW,250,2.0,6.0,89,0.00,,,0.00,Wunderground v.1.15,2013-01-17 18:25:00,
2013-01-17 13:35:00,59.9,56.0,29.95,WSW,248,4.0,8.0,87,0.00,,,0.00,Wunderground v.1.15,2013-01-17 18:35:00,
2013-01-17 13:45:00,59.6,55.1,29.95,WSW,249,6.0,6.0,85,0.00,,,0.00,Wunderground v.1.15,2013-01-17 18:45:00,
2013-01-17 13:50:00,59.5,54.7,29.95,West,281,5.0,6.0,84,0.00,,,0.00,Wunderground v.1.15,2013-01-17 18:50:00,
2013-01-17 13:55:00,59.3,53.8,29.95,NNW,331,5.0,6.0,82,0.00,,,0.00,Wunderground v.1.15,2013-01-17 18:55:00,
2013-01-17 14:05:00,59.2,54.0,29.95,South,186,3.0,4.0,83,0.00,,,0.00,Wunderground v.1.15,2013-01-17 19:05:00,
2013-01-17 14:15:00,59.0,53.5,29.95,SSW,196,4.0,9.0,82,0.00,,,0.00,Wunderground v.1.15,2013-01-17 19:15:00,
2013-01-17 14:20:00,59.0,54.2,29.95,SW,222,3.0,3.0,84,0.00,,,0.00,Wunderground v.1.15,2013-01-17 19:20:00,
2013-01-17 14:30:00,59.0,53.2,29.95,SW,230,3.0,7.0,81,0.00,,,0.00,Wunderground v.1.15,2013-01-17 19:30:00,
2013-01-17 14:40:00,58.7,52.5,29.95,WSW,244,4.0,6.0,80,0.00,,,0.00,Wunderground v.1.15,2013-01-17 19:40:00,
2013-01-17 14:50:00,58.9,52.4,29.95,SW,221,3.0,5.0,79,0.00,,,0.00,Wunderground v.1.15,2013-01-17 19:50:00,
2013-01-17 15:00:00,59.2,52.0,29.95,WSW,246,2.0,2.0,77,0.00,,,0.00,Wunderground v.1.15,2013-01-17 20:00:00,
2013-01-17 15:05:00,59.2,51.6,29.95,WSW,239,2.0,6.0,76,0.00,,,0.00,Wunderground v.1.15,2013-01-17 20:05:00,
2013-01-17 15:15:00,58.9,50.3,29.95,NNW,338,4.0,5.0,73,0.00,,,0.00,Wunderground v.1.15,2013-01-17 20:15:00,
2013-01-17 15:25:00,58.9,49.5,29.95,WSW,257,4.0,4.0,71,0.00,,,0.00,Wunderground v.1.15,2013-01-17 20:25:00,
2013-01-17 15:35:00,58.9,49.1,29.96,West,281,3.0,4.0,70,0.00,,,0.00,Wunderground v.1.15,2013-01-17 20:35:00,
2013-01-17 15:45:00,58.9,48.4,29.96,WSW,250,3.0,6.0,68,0.00,,,0.00,Wunderground v.1.15,2013-01-17 20:45:00,
2013-01-17 15:50:00,58.9,48.4,29.97,West,271,4.0,4.0,68,0.00,,,0.00,Wunderground v.1.15,2013-01-17 20:50:00,
2013-01-17 16:00:00,58.7,48.6,29.97,WNW,285,2.0,2.0,69,0.00,,,0.00,Wunderground v.1.15,2013-01-17 21:00:00,
2013-01-17 16:10:00,58.9,48.4,29.97,WSW,255,2.0,2.0,68,0.00,,,0.00,Wunderground v.1.15,2013-01-17 21:10:00,
2013-01-17 16:20:00,58.7,47.8,29.97,WSW,248,3.0,6.0,67,0.00,,,0.00,Wunderground v.1.15,2013-01-17 21:20:00,
2013-01-17 16:30:00,58.7,47.0,29.97,WSW,255,3.0,4.0,65,0.00,,,0.00,Wunderground v.1.15,2013-01-17 21:30:00,
2013-01-17 16:40:00,58.7,46.5,29.97,West,271,3.0,3.0,64,0.00,,,0.00,Wunderground v.1.15,2013-01-17 21:40:00,
2013-01-17 16:50:00,58.7,46.5,29.97,WNW,292,3.0,3.0,64,0.00,,,0.00,Wunderground v.1.15,2013-01-17 21:50:00,
2013-01-17 17:00:00,59.0,46.0,29.97,West,260,2.0,4.0,62,0.00,,,0.00,Wunderground v.1.15,2013-01-17 22:00:00,
2013-01-17 17:10:00,58.9,45.5,29.98,WNW,288,4.0,7.0,61,0.00,,,0.00,Wunderground v.1.15,2013-01-17 22:10:00,
2013-01-17 17:20:00,58.6,45.2,29.98,West,261,2.0,2.0,61,0.00,,,0.00,Wunderground v.1.15,2013-01-17 22:20:00,
2013-01-17 17:30:00,58.1,45.1,29.98,West,259,4.0,4.0,62,0.00,,,0.00,Wunderground v.1.15,2013-01-17 22:30:00,
2013-01-17 17:40:00,57.6,44.7,29.98,West,275,2.0,2.0,62,0.00,,,0.00,Wunderground v.1.15,2013-01-17 22:40:00,
2013-01-17 17:50:00,57.2,44.7,29.98,NW,318,2.0,4.0,63,0.00,,,0.00,Wunderground v.1.15,2013-01-17 22:50:00,
2013-01-17 18:00:00,56.7,44.7,29.98,NNW,342,2.0,2.0,64,0.00,,,0.00,Wunderground v.1.15,2013-01-17 23:00:00,
2013-01-17 18:05:00,56.6,44.6,29.98,WNW,286,1.0,4.0,64,0.00,,,0.00,Wunderground v.1.15,2013-01-17 23:05:00,
2013-01-17 18:15:00,56.3,44.7,29.98,WNW,297,2.0,5.0,65,0.00,,,0.00,Wunderground v.1.15,2013-01-17 23:15:00,
2013-01-17 18:25:00,56.3,45.5,29.99,West,275,1.0,4.0,67,0.00,,,0.00,Wunderground v.1.15,2013-01-17 23:25:00,
2013-01-17 18:35:00,56.2,45.8,30.00,WSW,254,1.0,4.0,68,0.00,,,0.00,Wunderground v.1.15,2013-01-17 23:35:00,
2013-01-17 18:45:00,56.0,46.0,30.00,West,275,3.0,4.0,69,0.00,,,0.00,Wunderground v.1.15,2013-01-17 23:45:00,
2013-01-17 18:55:00,55.9,46.3,30.00,SW,234,2.0,4.0,70,0.00,,,0.00,Wunderground v.1.15,2013-01-17 23:55:00,
2013-01-17 19:05:00,55.9,45.9,30.00,WSW,239,2.0,4.0,69,0.00,,,0.00,Wunderground v.1.15,2013-01-18 00:05:00,
2013-01-17 19:15:00,55.7,45.7,30.00,WNW,298,2.0,4.0,69,0.00,,,0.00,Wunderground v.1.15,2013-01-18 00:15:00,
2013-01-17 19:25:00,55.4,45.8,30.01,North,5,1.0,4.0,70,0.00,,,0.00,Wunderground v.1.15,2013-01-18 00:25:00,
2013-01-17 19:35:00,55.1,45.5,30.01,West,274,2.0,2.0,70,0.00,,,0.00,Wunderground v.1.15,2013-01-18 00:35:00,
2013-01-17 19:45:00,54.7,45.5,30.01,SW,231,1.0,4.0,71,0.00,,,0.00,Wunderground v.1.15,2013-01-18 00:45:00,
2013-01-17 19:50:00,54.5,45.3,30.02,WSW,251,2.0,2.0,71,0.00,,,0.00,Wunderground v.1.15,2013-01-18 00:50:00,
2013-01-17 19:55:00,54.4,45.2,30.02,WSW,252,2.0,4.0,71,0.00,,,0.00,Wunderground v.1.15,2013-01-18 00:55:00,
2013-01-17 20:05:00,54.1,44.9,30.02,WNW,284,1.0,4.0,71,0.00,,,0.00,Wunderground v.1.15,2013-01-18 01:05:00,
2013-01-17 20:15:00,53.9,45.1,30.02,WNW,286,2.0,4.0,72,0.00,,,0.00,Wunderground v.1.15,2013-01-18 01:15:00,
2013-01-17 20:20:00,53.8,45.0,30.03,WNW,296,2.0,2.0,72,0.00,,,0.00,Wunderground v.1.15,2013-01-18 01:20:00,
2013-01-17 20:30:00,53.5,44.7,30.03,WSW,253,2.0,2.0,72,0.00,,,0.00,Wunderground v.1.15,2013-01-18 01:30:00,
2013-01-17 20:40:00,53.3,44.5,30.03,West,260,1.0,1.0,72,0.00,,,0.00,Wunderground v.1.15,2013-01-18 01:40:00,
2013-01-17 20:50:00,53.1,43.9,30.04,SW,229,2.0,2.0,71,0.00,,,0.00,Wunderground v.1.15,2013-01-18 01:50:00,
2013-01-17 21:00:00,52.9,44.1,30.04,SW,215,1.0,4.0,72,0.00,,,0.00,Wunderground v.1.15,2013-01-18 02:00:00,
2013-01-17 21:10:00,52.6,43.8,30.05,WSW,238,1.0,4.0,72,0.00,,,0.00,Wunderground v.1.15,2013-01-18 02:10:00,
2013-01-17 21:20:00,52.3,43.9,30.05,WSW,240,1.0,1.0,73,0.00,,,0.00,Wunderground v.1.15,2013-01-18 02:20:00,
2013-01-17 21:30:00,52.0,43.6,30.05,WNW,298,1.0,4.0,73,0.00,,,0.00,Wunderground v.1.15,2013-01-18 02:30:00,
2013-01-17 21:40:00,51.7,43.0,30.05,NW,321,1.0,4.0,72,0.00,,,0.00,Wunderground v.1.15,2013-01-18 02:40:00,
2013-01-17 21:50:00,51.4,42.7,30.06,West,271,1.0,1.0,72,0.00,,,0.00,Wunderground v.1.15,2013-01-18 02:50:00,
2013-01-17 22:00:00,51.0,42.6,30.06,West,277,0.0,4.0,73,0.00,,,0.00,Wunderground v.1.15,2013-01-18 03:00:00,
2013-01-17 22:10:00,50.7,41.6,30.06,WNW,291,1.0,6.0,71,0.00,,,0.00,Wunderground v.1.15,2013-01-18 03:10:00,
2013-01-17 22:15:00,50.7,41.6,30.06,WSW,252,2.0,6.0,71,0.00,,,0.00,Wunderground v.1.15,2013-01-18 03:15:00,
2013-01-17 22:25:00,50.8,41.4,30.07,WSW,253,1.0,4.0,70,0.00,,,0.00,Wunderground v.1.15,2013-01-18 03:25:00,
2013-01-17 22:35:00,50.4,40.2,30.08,West,273,1.0,4.0,68,0.00,,,0.00,Wunderground v.1.15,2013-01-18 03:35:00,
2013-01-17 22:45:00,49.8,39.3,30.08,WNW,297,1.0,4.0,67,0.00,,,0.00,Wunderground v.1.15,2013-01-18 03:45:00,
2013-01-17 22:55:00,49.1,39.0,30.08,WNW,285,1.0,4.0,68,0.00,,,0.00,Wunderground v.1.15,2013-01-18 03:55:00,
2013-01-17 23:05:00,48.6,38.1,30.09,NW,325,1.0,4.0,67,0.00,,,0.00,Wunderground v.1.15,2013-01-18 04:05:00,
2013-01-17 23:15:00,47.9,37.8,30.09,West,278,1.0,4.0,68,0.00,,,0.00,Wunderground v.1.15,2013-01-18 04:15:00,
2013-01-17 23:25:00,47.0,36.6,30.09,WNW,298,1.0,4.0,67,0.00,,,0.00,Wunderground v.1.15,2013-01-18 04:25:00,
2013-01-17 23:30:00,46.5,36.1,30.09,NW,325,1.0,1.0,67,0.00,,,0.00,Wunderground v.1.15,2013-01-18 04:30:00,
2013-01-17 23:40:00,45.8,35.5,30.10,West,260,1.0,4.0,67,0.00,,,0.00,Wunderground v.1.15,2013-01-18 04:40:00,
2013-01-17 23:45:00,45.5,35.5,30.10,West,277,1.0,4.0,68,0.00,,,0.00,Wunderground v.1.15,2013-01-18 04:45:00,
2013-01-17 23:55:00,44.9,35.0,30.10,NW,321,0.0,4.0,68,0.00,,,0.00,Wunderground v.1.15,2013-01-18 04:55:00,